sensor_id;sensor_type;location;lat;lon;timestamp;pressure;altitude;pressure_sealevel;temperature;humidity
64228;BME280;50546;49.146;10.616;2022-10-16T00:00:34;96208.41;;;14.69;92.77
64228;BME280;50546;49.146;10.616;2022-10-16T00:02:59;96211.38;;;14.64;92.81
64228;BME280;50546;49.146;10.616;2022-10-16T00:05:25;96220.75;;;14.67;92.67
64228;BME280;50546;49.146;10.616;2022-10-16T00:07:50;96222.66;;;14.66;92.95
64228;BME280;50546;49.146;10.616;2022-10-16T00:10:15;96219.72;;;14.72;93.02
64228;BME280;50546;49.146;10.616;2022-10-16T00:12:41;96223.31;;;14.76;92.57
64228;BME280;50546;49.146;10.616;2022-10-16T00:15:06;96229.44;;;14.73;92.56
64228;BME280;50546;49.146;10.616;2022-10-16T00:17:32;96221.97;;;14.69;93.19
64228;BME280;50546;49.146;10.616;2022-10-16T00:19:57;96222.22;;;14.64;93.40
64228;BME280;50546;49.146;10.616;2022-10-16T00:22:23;96221.25;;;14.57;93.71
64228;BME280;50546;49.146;10.616;2022-10-16T00:24:48;96209.59;;;14.56;93.92
64228;BME280;50546;49.146;10.616;2022-10-16T00:27:13;96210.41;;;14.57;94.26
64228;BME280;50546;49.146;10.616;2022-10-16T00:29:39;96215.91;;;14.60;93.99
64228;BME280;50546;49.146;10.616;2022-10-16T00:32:04;96227.97;;;14.63;93.71
64228;BME280;50546;49.146;10.616;2022-10-16T00:34:29;96232.28;;;14.64;93.51
64228;BME280;50546;49.146;10.616;2022-10-16T00:36:55;96230.91;;;14.70;92.61
64228;BME280;50546;49.146;10.616;2022-10-16T00:39:20;96222.19;;;14.77;93.02
64228;BME280;50546;49.146;10.616;2022-10-16T00:41:46;96222.75;;;14.70;93.33
64228;BME280;50546;49.146;10.616;2022-10-16T00:44:49;96221.25;;;14.57;93.32
64228;BME280;50546;49.146;10.616;2022-10-16T00:47:24;96225.31;;;14.51;94.52
64228;BME280;50546;49.146;10.616;2022-10-16T00:49:54;96232.75;;;14.54;94.08
64228;BME280;50546;49.146;10.616;2022-10-16T00:52:21;96242.38;;;14.51;94.50
64228;BME280;50546;49.146;10.616;2022-10-16T00:54:47;96238.50;;;14.52;94.36
64228;BME280;50546;49.146;10.616;2022-10-16T00:57:14;96230.06;;;14.54;93.71
64228;BME280;50546;49.146;10.616;2022-10-16T00:59:40;96244.75;;;14.53;94.14
64228;BME280;50546;49.146;10.616;2022-10-16T01:02:09;96246.06;;;14.47;94.48
64228;BME280;50546;49.146;10.616;2022-10-16T01:05:04;96243.25;;;14.43;94.88
64228;BME280;50546;49.146;10.616;2022-10-16T01:07:34;96240.09;;;14.41;94.60
64228;BME280;50546;49.146;10.616;2022-10-16T01:12:43;96239.41;;;14.44;94.30
64228;BME280;50546;49.146;10.616;2022-10-16T01:15:17;96235.56;;;14.45;94.25
64228;BME280;50546;49.146;10.616;2022-10-16T01:17:51;96235.22;;;14.47;95.11
64228;BME280;50546;49.146;10.616;2022-10-16T01:20:28;96241.44;;;14.47;94.28
64228;BME280;50546;49.146;10.616;2022-10-16T01:23:18;96237.94;;;14.47;94.61
64228;BME280;50546;49.146;10.616;2022-10-16T01:28:37;96238.97;;;14.54;94.71
64228;BME280;50546;49.146;10.616;2022-10-16T01:31:04;96236.25;;;14.54;94.19
64228;BME280;50546;49.146;10.616;2022-10-16T01:33:38;96238.88;;;14.51;95.07
64228;BME280;50546;49.146;10.616;2022-10-16T01:36:11;96248.34;;;14.57;94.06
64228;BME280;50546;49.146;10.616;2022-10-16T01:38:39;96252.16;;;14.56;94.48
64228;BME280;50546;49.146;10.616;2022-10-16T01:41:10;96262.69;;;14.57;94.18
64228;BME280;50546;49.146;10.616;2022-10-16T01:43:43;96271.50;;;14.54;95.04
64228;BME280;50546;49.146;10.616;2022-10-16T01:46:13;96265.41;;;14.57;94.49
64228;BME280;50546;49.146;10.616;2022-10-16T01:48:40;96264.63;;;14.57;94.73
64228;BME280;50546;49.146;10.616;2022-10-16T01:51:09;96253.41;;;14.58;94.18
64228;BME280;50546;49.146;10.616;2022-10-16T01:53:37;96260.09;;;14.61;94.04
64228;BME280;50546;49.146;10.616;2022-10-16T01:56:07;96265.50;;;14.61;93.99
64228;BME280;50546;49.146;10.616;2022-10-16T01:58:37;96272.19;;;14.63;94.45
64228;BME280;50546;49.146;10.616;2022-10-16T02:01:08;96254.75;;;14.64;93.67
64228;BME280;50546;49.146;10.616;2022-10-16T02:03:37;96254.97;;;14.72;94.08
64228;BME280;50546;49.146;10.616;2022-10-16T02:06:06;96249.56;;;14.72;93.57
64228;BME280;50546;49.146;10.616;2022-10-16T02:08:32;96247.97;;;14.71;93.10
64228;BME280;50546;49.146;10.616;2022-10-16T02:10:58;96246.97;;;14.63;93.50
64228;BME280;50546;49.146;10.616;2022-10-16T02:13:38;96253.31;;;14.67;93.65
64228;BME280;50546;49.146;10.616;2022-10-16T02:16:05;96249.13;;;14.57;93.58
64228;BME280;50546;49.146;10.616;2022-10-16T02:18:31;96262.44;;;14.62;93.72
64228;BME280;50546;49.146;10.616;2022-10-16T02:21:08;96253.41;;;14.58;94.51
64228;BME280;50546;49.146;10.616;2022-10-16T02:26:13;96264.50;;;14.53;93.93
64228;BME280;50546;49.146;10.616;2022-10-16T02:28:45;96261.09;;;14.44;94.81
64228;BME280;50546;49.146;10.616;2022-10-16T02:31:16;96251.94;;;14.49;94.58
64228;BME280;50546;49.146;10.616;2022-10-16T02:33:45;96247.66;;;14.48;94.15
64228;BME280;50546;49.146;10.616;2022-10-16T02:36:11;96244.28;;;14.51;95.14
64228;BME280;50546;49.146;10.616;2022-10-16T02:38:37;96252.41;;;14.51;94.64
64228;BME280;50546;49.146;10.616;2022-10-16T02:41:04;96253.22;;;14.51;94.67
64228;BME280;50546;49.146;10.616;2022-10-16T02:43:30;96258.16;;;14.49;94.31
64228;BME280;50546;49.146;10.616;2022-10-16T02:45:56;96253.22;;;14.51;94.19
64228;BME280;50546;49.146;10.616;2022-10-16T02:48:21;96250.50;;;14.51;94.20
64228;BME280;50546;49.146;10.616;2022-10-16T02:50:46;96241.91;;;14.49;93.88
64228;BME280;50546;49.146;10.616;2022-10-16T02:53:11;96254.09;;;14.43;94.31
64228;BME280;50546;49.146;10.616;2022-10-16T02:55:37;96255.25;;;14.42;94.35
64228;BME280;50546;49.146;10.616;2022-10-16T02:58:02;96261.66;;;14.37;94.94
64228;BME280;50546;49.146;10.616;2022-10-16T03:00:28;96258.28;;;14.40;94.10
64228;BME280;50546;49.146;10.616;2022-10-16T03:02:54;96262.91;;;14.40;94.16
64228;BME280;50546;49.146;10.616;2022-10-16T03:05:19;96259.19;;;14.32;94.92
64228;BME280;50546;49.146;10.616;2022-10-16T03:07:44;96253.44;;;14.34;94.68
64228;BME280;50546;49.146;10.616;2022-10-16T03:10:10;96255.81;;;14.35;94.62
64228;BME280;50546;49.146;10.616;2022-10-16T03:12:35;96265.09;;;14.34;94.15
64228;BME280;50546;49.146;10.616;2022-10-16T03:15:01;96266.75;;;14.39;94.35
64228;BME280;50546;49.146;10.616;2022-10-16T03:17:26;96262.13;;;14.39;94.04
64228;BME280;50546;49.146;10.616;2022-10-16T03:19:52;96259.06;;;14.41;93.30
64228;BME280;50546;49.146;10.616;2022-10-16T03:22:17;96254.78;;;14.40;94.14
64228;BME280;50546;49.146;10.616;2022-10-16T03:24:43;96265.97;;;14.38;93.55
64228;BME280;50546;49.146;10.616;2022-10-16T03:27:08;96262.03;;;14.36;93.67
64228;BME280;50546;49.146;10.616;2022-10-16T03:29:34;96260.09;;;14.36;93.32
64228;BME280;50546;49.146;10.616;2022-10-16T03:31:59;96266.41;;;14.40;93.29
64228;BME280;50546;49.146;10.616;2022-10-16T03:34:25;96274.91;;;14.39;93.08
64228;BME280;50546;49.146;10.616;2022-10-16T03:36:50;96270.63;;;14.38;94.04
64228;BME280;50546;49.146;10.616;2022-10-16T03:39:16;96284.06;;;14.34;93.81
64228;BME280;50546;49.146;10.616;2022-10-16T03:41:41;96280.09;;;14.32;94.26
64228;BME280;50546;49.146;10.616;2022-10-16T03:44:07;96282.69;;;14.28;94.42
64228;BME280;50546;49.146;10.616;2022-10-16T03:46:32;96294.78;;;14.31;94.77
64228;BME280;50546;49.146;10.616;2022-10-16T03:48:57;96292.88;;;14.31;95.25
64228;BME280;50546;49.146;10.616;2022-10-16T03:51:23;96291.63;;;14.29;94.51
64228;BME280;50546;49.146;10.616;2022-10-16T03:53:48;96298.50;;;14.26;95.01
64228;BME280;50546;49.146;10.616;2022-10-16T03:56:13;96286.44;;;14.24;95.42
64228;BME280;50546;49.146;10.616;2022-10-16T03:58:39;96284.41;;;14.20;95.90
64228;BME280;50546;49.146;10.616;2022-10-16T04:01:04;96270.84;;;14.20;95.84
64228;BME280;50546;49.146;10.616;2022-10-16T04:03:29;96259.78;;;14.26;96.33
64228;BME280;50546;49.146;10.616;2022-10-16T04:05:55;96255.25;;;14.30;95.78
64228;BME280;50546;49.146;10.616;2022-10-16T04:08:20;96252.09;;;14.28;96.15
64228;BME280;50546;49.146;10.616;2022-10-16T04:10:46;96254.13;;;14.18;95.98
64228;BME280;50546;49.146;10.616;2022-10-16T04:13:12;96254.03;;;14.15;95.61
64228;BME280;50546;49.146;10.616;2022-10-16T04:15:38;96255.47;;;14.12;96.41
64228;BME280;50546;49.146;10.616;2022-10-16T04:18:04;96252.34;;;14.10;96.47
64228;BME280;50546;49.146;10.616;2022-10-16T04:20:30;96258.53;;;14.11;96.60
64228;BME280;50546;49.146;10.616;2022-10-16T04:22:55;96261.59;;;14.09;96.16
64228;BME280;50546;49.146;10.616;2022-10-16T04:25:21;96268.13;;;14.08;96.71
64228;BME280;50546;49.146;10.616;2022-10-16T04:27:46;96263.84;;;14.07;95.55
64228;BME280;50546;49.146;10.616;2022-10-16T04:30:12;96265.41;;;14.08;96.52
64228;BME280;50546;49.146;10.616;2022-10-16T04:32:38;96277.03;;;14.09;95.73
64228;BME280;50546;49.146;10.616;2022-10-16T04:35:03;96289.13;;;14.11;96.46
64228;BME280;50546;49.146;10.616;2022-10-16T04:37:28;96288.22;;;14.07;95.45
64228;BME280;50546;49.146;10.616;2022-10-16T04:39:54;96291.41;;;14.09;95.35
64228;BME280;50546;49.146;10.616;2022-10-16T04:42:20;96296.00;;;14.09;95.32
64228;BME280;50546;49.146;10.616;2022-10-16T04:44:45;96289.81;;;14.08;95.38
64228;BME280;50546;49.146;10.616;2022-10-16T04:47:11;96288.22;;;14.07;95.69
64228;BME280;50546;49.146;10.616;2022-10-16T04:49:36;96299.41;;;14.06;95.95
64228;BME280;50546;49.146;10.616;2022-10-16T04:52:02;96290.94;;;14.07;95.35
64228;BME280;50546;49.146;10.616;2022-10-16T04:54:27;96287.88;;;14.09;96.13
64228;BME280;50546;49.146;10.616;2022-10-16T04:56:52;96294.22;;;14.13;94.94
64228;BME280;50546;49.146;10.616;2022-10-16T04:59:18;96286.41;;;14.11;95.33
64228;BME280;50546;49.146;10.616;2022-10-16T05:01:44;96294.78;;;14.18;94.08
64228;BME280;50546;49.146;10.616;2022-10-16T05:04:10;96299.06;;;14.19;94.30
64228;BME280;50546;49.146;10.616;2022-10-16T05:06:36;96298.63;;;14.17;94.33
64228;BME280;50546;49.146;10.616;2022-10-16T05:09:02;96308.22;;;14.15;94.38
64228;BME280;50546;49.146;10.616;2022-10-16T05:11:27;96307.41;;;14.14;93.93
64228;BME280;50546;49.146;10.616;2022-10-16T05:13:52;96311.28;;;14.13;93.93
64228;BME280;50546;49.146;10.616;2022-10-16T05:16:18;96306.06;;;14.08;94.19
64228;BME280;50546;49.146;10.616;2022-10-16T05:18:43;96323.78;;;14.06;94.24
64228;BME280;50546;49.146;10.616;2022-10-16T05:21:08;96317.59;;;14.05;94.74
64228;BME280;50546;49.146;10.616;2022-10-16T05:23:34;96307.53;;;14.06;94.48
64228;BME280;50546;49.146;10.616;2022-10-16T05:25:59;96314.78;;;14.02;95.07
64228;BME280;50546;49.146;10.616;2022-10-16T05:28:26;96316.66;;;14.01;94.54
64228;BME280;50546;49.146;10.616;2022-10-16T05:30:53;96312.38;;;14.00;94.48
64228;BME280;50546;49.146;10.616;2022-10-16T05:33:23;96312.38;;;14.00;94.77
64228;BME280;50546;49.146;10.616;2022-10-16T05:35:48;96319.47;;;14.05;93.91
64228;BME280;50546;49.146;10.616;2022-10-16T05:38:15;96332.72;;;14.06;93.55
64228;BME280;50546;49.146;10.616;2022-10-16T05:40:40;96334.28;;;14.07;93.54
64228;BME280;50546;49.146;10.616;2022-10-16T05:43:05;96337.78;;;14.08;93.81
64228;BME280;50546;49.146;10.616;2022-10-16T05:45:31;96328.75;;;14.04;94.17
64228;BME280;50546;49.146;10.616;2022-10-16T05:47:56;96331.81;;;14.02;93.90
64228;BME280;50546;49.146;10.616;2022-10-16T05:50:21;96327.06;;;13.99;93.92
64228;BME280;50546;49.146;10.616;2022-10-16T05:52:47;96337.00;;;13.95;94.26
64228;BME280;50546;49.146;10.616;2022-10-16T05:55:12;96346.69;;;13.96;93.95
64228;BME280;50546;49.146;10.616;2022-10-16T05:57:37;96336.75;;;14.00;93.59
64228;BME280;50546;49.146;10.616;2022-10-16T06:00:04;96332.59;;;14.03;93.68
64228;BME280;50546;49.146;10.616;2022-10-16T06:02:30;96343.75;;;14.01;93.32
64228;BME280;50546;49.146;10.616;2022-10-16T06:04:55;96352.09;;;13.96;93.64
64228;BME280;50546;49.146;10.616;2022-10-16T06:07:21;96344.44;;;13.98;93.26
64228;BME280;50546;49.146;10.616;2022-10-16T06:09:50;96346.69;;;13.96;93.86
64228;BME280;50546;49.146;10.616;2022-10-16T06:12:16;96352.56;;;13.98;94.01
64228;BME280;50546;49.146;10.616;2022-10-16T06:14:41;96354.94;;;14.00;94.01
64228;BME280;50546;49.146;10.616;2022-10-16T06:17:07;96348.72;;;13.99;93.81
64228;BME280;50546;49.146;10.616;2022-10-16T06:19:32;96343.31;;;13.99;93.72
64228;BME280;50546;49.146;10.616;2022-10-16T06:21:57;96347.94;;;13.99;93.72
64228;BME280;50546;49.146;10.616;2022-10-16T06:24:23;96341.84;;;14.02;93.51
64228;BME280;50546;49.146;10.616;2022-10-16T06:26:49;96340.38;;;14.04;93.61
64228;BME280;50546;49.146;10.616;2022-10-16T06:29:14;96347.72;;;14.16;93.57
64228;BME280;50546;49.146;10.616;2022-10-16T06:31:39;96356.53;;;14.25;92.88
64228;BME280;50546;49.146;10.616;2022-10-16T06:34:05;96364.22;;;14.35;91.78
64228;BME280;50546;49.146;10.616;2022-10-16T06:36:34;96358.56;;;14.28;91.99
64228;BME280;50546;49.146;10.616;2022-10-16T06:38:59;96350.53;;;14.19;92.47
64228;BME280;50546;49.146;10.616;2022-10-16T06:41:25;96356.66;;;14.16;92.26
64228;BME280;50546;49.146;10.616;2022-10-16T06:43:50;96361.06;;;14.21;92.39
64228;BME280;50546;49.146;10.616;2022-10-16T06:46:19;96364.19;;;14.23;92.24
64228;BME280;50546;49.146;10.616;2022-10-16T06:48:46;96354.28;;;14.27;91.84
64228;BME280;50546;49.146;10.616;2022-10-16T06:51:13;96377.66;;;14.32;91.69
64228;BME280;50546;49.146;10.616;2022-10-16T06:53:41;96386.34;;;14.37;91.33
64228;BME280;50546;49.146;10.616;2022-10-16T06:56:19;96391.09;;;14.40;90.73
64228;BME280;50546;49.146;10.616;2022-10-16T06:58:45;96373.03;;;14.44;91.32
64228;BME280;50546;49.146;10.616;2022-10-16T07:01:12;96382.06;;;14.49;91.30
64228;BME280;50546;49.146;10.616;2022-10-16T07:03:42;96393.72;;;14.49;91.17
64228;BME280;50546;49.146;10.616;2022-10-16T07:06:09;96389.09;;;14.50;90.66
64228;BME280;50546;49.146;10.616;2022-10-16T07:08:36;96399.59;;;14.51;91.40
64228;BME280;50546;49.146;10.616;2022-10-16T07:11:04;96397.53;;;14.48;90.88
64228;BME280;50546;49.146;10.616;2022-10-16T07:13:29;96409.97;;;14.49;90.86
64228;BME280;50546;49.146;10.616;2022-10-16T07:15:55;96393.50;;;14.54;91.33
64228;BME280;50546;49.146;10.616;2022-10-16T07:18:20;96405.13;;;14.55;91.39
64228;BME280;50546;49.146;10.616;2022-10-16T07:20:46;96404.34;;;14.54;90.83
64228;BME280;50546;49.146;10.616;2022-10-16T07:23:12;96407.53;;;14.56;90.25
64228;BME280;50546;49.146;10.616;2022-10-16T07:25:37;96412.47;;;14.54;90.25
64228;BME280;50546;49.146;10.616;2022-10-16T07:28:02;96414.06;;;14.55;91.12
64228;BME280;50546;49.146;10.616;2022-10-16T07:30:28;96404.09;;;14.59;89.61
64228;BME280;50546;49.146;10.616;2022-10-16T07:32:53;96409.66;;;14.63;90.42
64228;BME280;50546;49.146;10.616;2022-10-16T07:35:18;96401.84;;;14.74;89.43
64228;BME280;50546;49.146;10.616;2022-10-16T07:37:45;96420.84;;;14.74;89.64
64228;BME280;50546;49.146;10.616;2022-10-16T07:40:11;96420.63;;;14.79;89.77
64228;BME280;50546;49.146;10.616;2022-10-16T07:42:36;96408.75;;;14.83;88.65
64228;BME280;50546;49.146;10.616;2022-10-16T07:45:03;96423.78;;;14.81;88.64
64228;BME280;50546;49.146;10.616;2022-10-16T07:47:29;96431.69;;;14.86;89.79
64228;BME280;50546;49.146;10.616;2022-10-16T07:49:54;96450.00;;;14.89;88.78
64228;BME280;50546;49.146;10.616;2022-10-16T07:52:19;96448.19;;;14.93;88.50
64228;BME280;50546;49.146;10.616;2022-10-16T07:54:45;96428.16;;;14.98;87.69
64228;BME280;50546;49.146;10.616;2022-10-16T07:57:10;96434.16;;;15.03;88.63
64228;BME280;50546;49.146;10.616;2022-10-16T07:59:35;96449.97;;;15.13;88.19
64228;BME280;50546;49.146;10.616;2022-10-16T08:02:00;96445.44;;;15.17;87.10
64228;BME280;50546;49.146;10.616;2022-10-16T08:04:26;96450.19;;;15.21;87.00
64228;BME280;50546;49.146;10.616;2022-10-16T08:06:51;96456.06;;;15.23;86.97
64228;BME280;50546;49.146;10.616;2022-10-16T08:09:17;96448.59;;;15.20;87.57
64228;BME280;50546;49.146;10.616;2022-10-16T08:11:42;96461.91;;;15.25;87.01
64228;BME280;50546;49.146;10.616;2022-10-16T08:14:07;96451.53;;;15.27;87.58
64228;BME280;50546;49.146;10.616;2022-10-16T08:16:33;96464.63;;;15.37;86.80
64228;BME280;50546;49.146;10.616;2022-10-16T08:18:58;96467.88;;;15.43;86.47
64228;BME280;50546;49.146;10.616;2022-10-16T08:21:23;96468.78;;;15.47;85.69
64228;BME280;50546;49.146;10.616;2022-10-16T08:23:50;96469.81;;;15.54;85.84
64228;BME280;50546;49.146;10.616;2022-10-16T08:26:15;96469.81;;;15.54;85.98
64228;BME280;50546;49.146;10.616;2022-10-16T08:28:41;96483.59;;;15.61;85.70
64228;BME280;50546;49.146;10.616;2022-10-16T08:31:08;96491.38;;;15.63;85.22
64228;BME280;50546;49.146;10.616;2022-10-16T08:33:33;96475.63;;;15.81;84.39
64228;BME280;50546;49.146;10.616;2022-10-16T08:36:00;96497.09;;;15.86;84.47
64228;BME280;50546;49.146;10.616;2022-10-16T08:38:26;96489.59;;;15.95;83.90
64228;BME280;50546;49.146;10.616;2022-10-16T08:40:55;96484.28;;;15.99;84.11
64228;BME280;50546;49.146;10.616;2022-10-16T08:43:34;96481.75;;;16.06;84.23
64228;BME280;50546;49.146;10.616;2022-10-16T08:46:42;96483.06;;;16.12;84.18
64228;BME280;50546;49.146;10.616;2022-10-16T08:49:12;96480.31;;;16.24;83.36
64228;BME280;50546;49.146;10.616;2022-10-16T08:51:41;96481.69;;;16.18;83.15
64228;BME280;50546;49.146;10.616;2022-10-16T08:56:56;96479.31;;;16.17;83.44
64228;BME280;50546;49.146;10.616;2022-10-16T08:59:22;96494.94;;;16.20;83.33
64228;BME280;50546;49.146;10.616;2022-10-16T09:01:49;96502.91;;;16.12;83.34
64228;BME280;50546;49.146;10.616;2022-10-16T09:04:34;96506.63;;;16.08;83.55
64228;BME280;50546;49.146;10.616;2022-10-16T09:10:02;96511.06;;;16.12;84.25
64228;BME280;50546;49.146;10.616;2022-10-16T09:12:37;96520.53;;;16.19;84.39
64228;BME280;50546;49.146;10.616;2022-10-16T09:20:28;96489.91;;;16.50;83.01
64228;BME280;50546;49.146;10.616;2022-10-16T09:25:30;96495.34;;;16.66;82.79
64228;BME280;50546;49.146;10.616;2022-10-16T09:27:56;96493.75;;;16.65;83.05
64228;BME280;50546;49.146;10.616;2022-10-16T09:30:22;96497.63;;;16.64;83.14
64228;BME280;50546;49.146;10.616;2022-10-16T09:32:52;96503.16;;;16.67;82.13
64228;BME280;50546;49.146;10.616;2022-10-16T09:35:45;96491.66;;;16.74;82.40
64228;BME280;50546;49.146;10.616;2022-10-16T09:38:41;96501.69;;;16.86;82.50
64228;BME280;50546;49.146;10.616;2022-10-16T09:41:20;96498.78;;;16.94;82.10
64228;BME280;50546;49.146;10.616;2022-10-16T09:43:55;96505.19;;;17.02;82.25
64228;BME280;50546;49.146;10.616;2022-10-16T09:48:55;96517.22;;;17.17;81.44
64228;BME280;50546;49.146;10.616;2022-10-16T09:51:28;96522.22;;;17.15;81.12
64228;BME280;50546;49.146;10.616;2022-10-16T09:54:02;96530.13;;;17.20;80.99
64228;BME280;50546;49.146;10.616;2022-10-16T09:56:37;96523.50;;;17.37;80.34
64228;BME280;50546;49.146;10.616;2022-10-16T09:59:12;96520.81;;;17.56;80.09
64228;BME280;50546;49.146;10.616;2022-10-16T10:01:38;96519.19;;;17.71;79.49
64228;BME280;50546;49.146;10.616;2022-10-16T10:04:05;96525.09;;;17.73;79.85
64228;BME280;50546;49.146;10.616;2022-10-16T10:06:42;96521.16;;;17.90;79.11
64228;BME280;50546;49.146;10.616;2022-10-16T10:09:30;96515.78;;;17.93;77.92
64228;BME280;50546;49.146;10.616;2022-10-16T10:11:59;96527.06;;;17.92;78.62
64228;BME280;50546;49.146;10.616;2022-10-16T10:14:31;96531.16;;;17.82;78.37
64228;BME280;50546;49.146;10.616;2022-10-16T10:19:29;96524.88;;;17.97;77.32
64228;BME280;50546;49.146;10.616;2022-10-16T10:21:55;96534.25;;;18.00;77.69
64228;BME280;50546;49.146;10.616;2022-10-16T10:24:20;96526.56;;;18.06;77.34
64228;BME280;50546;49.146;10.616;2022-10-16T10:26:51;96529.84;;;18.15;77.28
64228;BME280;50546;49.146;10.616;2022-10-16T10:32:22;96535.13;;;18.23;76.46
64228;BME280;50546;49.146;10.616;2022-10-16T10:35:05;96534.03;;;18.28;76.31
64228;BME280;50546;49.146;10.616;2022-10-16T10:40:51;96545.38;;;18.30;76.57
64228;BME280;50546;49.146;10.616;2022-10-16T10:46:04;96530.34;;;18.40;75.55
64228;BME280;50546;49.146;10.616;2022-10-16T10:48:45;96535.13;;;18.23;75.47
64228;BME280;50546;49.146;10.616;2022-10-16T10:51:38;96541.63;;;18.38;76.15
64228;BME280;50546;49.146;10.616;2022-10-16T10:54:14;96539.75;;;18.42;75.28
64228;BME280;50546;49.146;10.616;2022-10-16T10:59:28;96548.66;;;18.39;75.49
64228;BME280;50546;49.146;10.616;2022-10-16T11:05:23;96548.03;;;18.69;75.73
64228;BME280;50546;49.146;10.616;2022-10-16T11:08:08;96551.41;;;19.05;73.70
64228;BME280;50546;49.146;10.616;2022-10-16T11:10:44;96556.38;;;18.99;74.21
64228;BME280;50546;49.146;10.616;2022-10-16T11:16:20;96559.97;;;18.80;74.63
64228;BME280;50546;49.146;10.616;2022-10-16T11:19:22;96562.34;;;18.82;74.25
64228;BME280;50546;49.146;10.616;2022-10-16T11:22:15;96557.59;;;19.02;73.78
64228;BME280;50546;49.146;10.616;2022-10-16T11:24:47;96557.34;;;18.87;73.82
64228;BME280;50546;49.146;10.616;2022-10-16T11:27:17;96555.25;;;19.00;74.33
64228;BME280;50546;49.146;10.616;2022-10-16T11:29:59;96556.69;;;19.17;73.14
64228;BME280;50546;49.146;10.616;2022-10-16T11:32:47;96549.84;;;19.04;72.80
64228;BME280;50546;49.146;10.616;2022-10-16T11:35:22;96554.03;;;18.97;73.56
64228;BME280;50546;49.146;10.616;2022-10-16T11:37:50;96550.31;;;18.86;74.52
64228;BME280;50546;49.146;10.616;2022-10-16T11:40:32;96545.44;;;18.95;74.05
64228;BME280;50546;49.146;10.616;2022-10-16T11:43:13;96547.84;;;18.78;74.29
64228;BME280;50546;49.146;10.616;2022-10-16T11:50:51;96546.19;;;19.45;72.14
64228;BME280;50546;49.146;10.616;2022-10-16T11:53:34;96548.88;;;19.95;71.57
64228;BME280;50546;49.146;10.616;2022-10-16T11:56:03;96553.31;;;20.07;70.78
64228;BME280;50546;49.146;10.616;2022-10-16T11:58:33;96548.94;;;20.32;70.26
64228;BME280;50546;49.146;10.616;2022-10-16T12:08:48;96548.81;;;20.92;68.31
64228;BME280;50546;49.146;10.616;2022-10-16T12:13:48;96551.00;;;21.17;66.71
64228;BME280;50546;49.146;10.616;2022-10-16T12:18:46;96551.91;;;21.91;64.61
64228;BME280;50546;49.146;10.616;2022-10-16T12:21:16;96538.50;;;22.55;62.98
64228;BME280;50546;49.146;10.616;2022-10-16T12:23:55;96535.81;;;22.94;60.18
64228;BME280;50546;49.146;10.616;2022-10-16T12:26:26;96543.72;;;23.32;58.23
64228;BME280;50546;49.146;10.616;2022-10-16T12:28:52;96539.78;;;23.33;58.11
64228;BME280;50546;49.146;10.616;2022-10-16T12:31:18;96546.03;;;23.01;58.05
64228;BME280;50546;49.146;10.616;2022-10-16T12:33:57;96542.88;;;22.85;57.69
64228;BME280;50546;49.146;10.616;2022-10-16T12:36:31;96543.19;;;22.65;58.23
64228;BME280;50546;49.146;10.616;2022-10-16T12:38:57;96544.47;;;23.07;58.36
64228;BME280;50546;49.146;10.616;2022-10-16T12:41:35;96548.22;;;24.31;55.53
64228;BME280;50546;49.146;10.616;2022-10-16T12:44:05;96545.03;;;25.58;52.71
64228;BME280;50546;49.146;10.616;2022-10-16T12:51:53;96535.31;;;25.88;49.94
64228;BME280;50546;49.146;10.616;2022-10-16T12:59:44;96544.81;;;27.09;46.37
64228;BME280;50546;49.146;10.616;2022-10-16T13:08:18;96546.81;;;27.83;45.47
64228;BME280;50546;49.146;10.616;2022-10-16T13:11:05;96553.53;;;26.81;46.72
64228;BME280;50546;49.146;10.616;2022-10-16T13:22:14;96548.91;;;28.59;42.15
64228;BME280;50546;49.146;10.616;2022-10-16T13:25:13;96548.22;;;28.71;40.56
64228;BME280;50546;49.146;10.616;2022-10-16T13:27:55;96553.03;;;28.87;39.80
64228;BME280;50546;49.146;10.616;2022-10-16T13:30:41;96547.75;;;27.73;42.00
64228;BME280;50546;49.146;10.616;2022-10-16T13:33:40;96560.22;;;27.10;44.95
64228;BME280;50546;49.146;10.616;2022-10-16T13:36:20;96559.13;;;26.43;46.37
64228;BME280;50546;49.146;10.616;2022-10-16T13:38:45;96565.88;;;26.42;45.97
64228;BME280;50546;49.146;10.616;2022-10-16T13:41:16;96559.50;;;26.14;46.52
64228;BME280;50546;49.146;10.616;2022-10-16T13:43:48;96568.19;;;26.78;45.49
64228;BME280;50546;49.146;10.616;2022-10-16T13:46:17;96564.78;;;26.67;45.90
64228;BME280;50546;49.146;10.616;2022-10-16T13:48:44;96564.41;;;27.22;45.11
64228;BME280;50546;49.146;10.616;2022-10-16T13:51:21;96565.06;;;27.03;45.40
64228;BME280;50546;49.146;10.616;2022-10-16T13:53:47;96564.16;;;25.83;45.90
64228;BME280;50546;49.146;10.616;2022-10-16T13:56:14;96571.59;;;25.41;47.99
64228;BME280;50546;49.146;10.616;2022-10-16T13:58:40;96577.41;;;25.54;49.41
64228;BME280;50546;49.146;10.616;2022-10-16T14:01:19;96585.78;;;24.84;49.49
64228;BME280;50546;49.146;10.616;2022-10-16T14:03:46;96582.91;;;24.07;53.88
64228;BME280;50546;49.146;10.616;2022-10-16T14:06:15;96573.94;;;23.78;55.40
64228;BME280;50546;49.146;10.616;2022-10-16T14:09:01;96582.97;;;23.18;56.88
64228;BME280;50546;49.146;10.616;2022-10-16T14:11:28;96579.75;;;22.91;58.43
64228;BME280;50546;49.146;10.616;2022-10-16T14:13:54;96581.38;;;22.92;59.10
64228;BME280;50546;49.146;10.616;2022-10-16T14:16:27;96591.41;;;22.41;58.97
64228;BME280;50546;49.146;10.616;2022-10-16T14:19:04;96591.28;;;22.16;60.68
64228;BME280;50546;49.146;10.616;2022-10-16T14:21:32;96592.88;;;21.62;61.94
64228;BME280;50546;49.146;10.616;2022-10-16T14:23:58;96593.22;;;21.53;63.01
64228;BME280;50546;49.146;10.616;2022-10-16T14:26:26;96590.94;;;21.62;63.01
64228;BME280;50546;49.146;10.616;2022-10-16T14:29:25;96587.78;;;21.64;63.11